Time;durP1;ratioP1;P1;durP2;ratioP2;P2;SDS_P1;SDS_P2;PMS_P1;PMS_P2;Temp;Humidity;BMP_temperature;BMP_pressure;BME280_temperature;BME280_humidity;BME280_pressure;Samples;Min_cycle;Max_cycle;Signal;HPM_P1;HPM_P2
2022/08/13 00:01:12;;;;;;;3.63;1.70;;;;;;;21.16;44.52;99682.50;5066525;28;20127;-84
2022/08/13 00:03:38;;;;;;;3.78;2.00;;;;;;;21.11;44.43;99661.47;5063470;28;20102;-81
2022/08/13 00:06:04;;;;;;;2.38;1.98;;;;;;;21.11;44.42;99678.38;5051128;28;20080;-82
2022/08/13 00:08:32;;;;;;;5.03;1.77;;;;;;;21.12;44.98;99671.50;4960900;28;20038;-83
2022/08/13 00:10:58;;;;;;;3.60;1.98;;;;;;;21.10;44.60;99668.41;5041538;28;20486;-83
2022/08/13 00:13:24;;;;;;;3.40;1.80;;;;;;;21.08;45.19;99670.19;5041614;28;20064;-82
2022/08/13 00:15:50;;;;;;;2.80;1.67;;;;;;;21.09;45.14;99671.75;5066600;28;20098;-82
2022/08/13 00:18:18;;;;;;;3.83;2.00;;;;;;;21.07;45.08;99669.44;5071436;28;20049;-82
2022/08/13 00:20:55;;;;;;;5.97;2.60;;;;;;;21.03;45.54;99668.94;5065403;28;20439;-83
2022/08/13 00:23:23;;;;;;;2.88;1.95;;;;;;;21.04;45.04;99673.28;5064157;28;20143;-82
2022/08/13 00:25:54;;;;;;;3.72;2.00;;;;;;;21.04;44.84;99667.66;5055247;28;20126;-84
2022/08/13 00:28:22;;;;;;;6.55;2.25;;;;;;;21.03;45.19;99668.19;5051092;28;20057;-82
2022/08/13 00:30:48;;;;;;;2.92;1.95;;;;;;;20.99;45.53;99645.88;5070069;28;20053;-83
2022/08/13 00:33:19;;;;;;;6.22;2.30;;;;;;;20.96;45.30;99655.38;5068176;28;20044;-82
2022/08/13 00:35:51;;;;;;;5.38;2.30;;;;;;;20.95;45.57;99656.66;5069352;28;20040;-82
2022/08/13 00:38:20;;;;;;;3.92;1.90;;;;;;;20.93;45.60;99653.59;5053657;28;20041;-82
2022/08/13 00:40:52;;;;;;;4.13;2.00;;;;;;;20.89;45.27;99639.00;4977784;28;20108;-82
2022/08/13 00:43:18;;;;;;;5.65;2.10;;;;;;;20.83;45.64;99643.88;5069442;28;20045;-83
2022/08/13 00:45:43;;;;;;;3.22;2.30;;;;;;;20.79;46.08;99632.88;5068307;28;20029;-84
2022/08/13 00:50:56;;;;;;;4.03;2.17;;;;;;;20.74;46.11;99638.53;5066388;28;20064;-84
2022/08/13 00:53:24;;;;;;;5.05;2.10;;;;;;;20.76;46.01;99638.78;5069734;28;20035;-84
2022/08/13 00:55:53;;;;;;;5.53;2.28;;;;;;;20.72;46.19;99638.28;5033291;28;20086;-83
2022/08/13 00:58:20;;;;;;;3.53;2.28;;;;;;;20.67;46.80;99642.63;4975273;28;20031;-83
2022/08/13 01:03:22;;;;;;;3.80;2.40;;;;;;;20.64;47.06;99634.47;5144365;22;20049;-85
2022/08/13 01:05:49;;;;;;;3.40;2.20;;;;;;;20.61;47.19;99630.63;5031993;28;20053;-85
2022/08/13 01:08:16;;;;;;;2.42;2.15;;;;;;;20.62;47.42;99631.41;5030928;28;20056;-84
2022/08/13 01:10:43;;;;;;;4.38;2.30;;;;;;;20.54;47.25;99616.31;5043027;28;20127;-85
2022/08/13 01:13:11;;;;;;;4.28;2.50;;;;;;;20.53;47.91;99629.63;5051192;28;20049;-85
2022/08/13 01:15:41;;;;;;;4.40;2.25;;;;;;;20.54;48.38;99627.56;5051693;28;20397;-84
2022/08/13 01:18:15;;;;;;;6.75;2.45;;;;;;;20.56;48.58;99627.81;5048642;28;20059;-84
2022/08/13 01:21:10;;;;;;;3.92;2.45;;;;;;;20.57;48.45;99621.69;5035243;28;20491;-85
2022/08/13 01:23:37;;;;;;;3.67;2.30;;;;;;;20.54;48.60;99627.56;5052903;28;20052;-85
2022/08/13 01:26:02;;;;;;;4.03;2.42;;;;;;;20.48;49.13;99624.75;5035562;28;20132;-84
2022/08/13 01:28:28;;;;;;;3.17;2.38;;;;;;;20.48;49.24;99614.25;5051119;28;20128;-85
2022/08/13 01:30:56;;;;;;;4.43;2.78;;;;;;;20.44;49.59;99608.13;5053294;28;20041;-84
2022/08/13 01:33:23;;;;;;;3.30;2.53;;;;;;;20.46;49.38;99616.06;5049936;28;20091;-85
2022/08/13 01:35:49;;;;;;;7.22;2.78;;;;;;;20.44;49.74;99619.38;5035011;28;20385;-84
2022/08/13 01:38:15;;;;;;;3.30;2.42;;;;;;;20.46;50.14;99618.88;5034968;28;20040;-85
2022/08/13 01:40:42;;;;;;;3.80;2.40;;;;;;;20.47;50.18;99617.59;5051370;28;20041;-84
2022/08/13 01:43:08;;;;;;;3.88;2.55;;;;;;;20.46;50.96;99628.09;5052423;28;20492;-84
2022/08/13 01:45:34;;;;;;;3.53;2.25;;;;;;;20.43;50.93;99623.47;5035145;28;20037;-84
2022/08/13 01:50:44;;;;;;;4.25;2.60;;;;;;;20.47;51.08;99628.84;5020722;28;20040;-85
2022/08/13 01:53:13;;;;;;;3.47;2.45;;;;;;;20.47;51.06;99629.63;5034222;28;20052;-84
2022/08/13 01:55:44;;;;;;;3.45;2.53;;;;;;;20.45;50.94;99626.56;5019556;28;20057;-85
2022/08/13 01:58:19;;;;;;;5.63;2.67;;;;;;;20.41;51.66;99628.88;5051478;28;20053;-85
2022/08/13 02:00:50;;;;;;;6.00;2.63;;;;;;;20.34;52.38;99615.28;5034886;28;20118;-85
2022/08/13 02:03:18;;;;;;;4.28;2.40;;;;;;;20.32;52.22;99619.91;5033227;28;20040;-84
2022/08/13 02:05:44;;;;;;;4.60;2.70;;;;;;;20.32;52.72;99622.75;5052914;28;20504;-85
2022/08/13 02:08:12;;;;;;;3.70;2.70;;;;;;;20.31;52.36;99609.94;5050723;28;20735;-84
2022/08/13 02:10:43;;;;;;;3.97;2.58;;;;;;;20.32;52.80;99615.06;5052601;28;20403;-85
2022/08/13 02:13:15;;;;;;;;;;;;;;;20.32;52.90;99617.88;5013312;28;20117;-84
2022/08/13 02:15:42;;;;;;;4.80;2.80;;;;;;;20.30;53.13;99614.78;5034253;28;19975;-84
2022/08/13 02:18:17;;;;;;;4.55;2.75;;;;;;;20.28;53.29;99620.16;5032058;28;20044;-85
2022/08/13 02:20:51;;;;;;;4.20;2.80;;;;;;;20.23;53.33;99612.47;5051537;28;20064;-85
2022/08/13 02:23:25;;;;;;;4.18;2.83;;;;;;;20.20;53.63;99598.66;5050070;28;20403;-84
2022/08/13 02:25:51;;;;;;;5.57;2.83;;;;;;;20.19;53.76;99605.56;5034007;28;20041;-86
2022/08/13 02:28:19;;;;;;;4.93;3.08;;;;;;;20.16;53.83;99615.81;5049672;28;20512;-85
2022/08/13 02:30:51;;;;;;;4.97;3.15;;;;;;;20.14;54.28;99607.09;5046493;28;20056;-84
2022/08/13 02:33:17;;;;;;;4.03;2.75;;;;;;;20.17;54.20;99608.91;5032492;28;20622;-85
2022/08/13 02:35:44;;;;;;;3.55;2.80;;;;;;;20.14;54.38;99607.09;5017157;28;20037;-84
2022/08/13 02:38:12;;;;;;;4.47;2.97;;;;;;;20.11;54.80;99598.91;5051619;28;20044;-85
2022/08/13 02:43:26;;;;;;;7.30;3.15;;;;;;;20.20;54.59;99607.88;5048232;28;20048;-85
2022/08/13 02:45:53;;;;;;;4.38;2.90;;;;;;;20.24;54.61;99604.78;5051040;28;20454;-84
2022/08/13 02:48:20;;;;;;;6.05;3.40;;;;;;;20.27;54.68;99598.91;5033565;28;20318;-84
2022/08/13 02:50:45;;;;;;;3.72;3.00;;;;;;;20.30;54.67;99595.06;5032634;28;20071;-84
2022/08/13 02:53:15;;;;;;;5.30;2.80;;;;;;;20.30;54.85;99605.59;5031110;28;20044;-84
2022/08/13 02:55:41;;;;;;;5.18;3.25;;;;;;;20.31;54.86;99602.25;5050115;28;20048;-84
2022/08/13 02:58:07;;;;;;;3.55;2.88;;;;;;;20.30;55.07;99599.97;5051010;28;20507;-85
2022/08/13 03:00:33;;;;;;;4.60;3.08;;;;;;;20.30;54.99;99599.97;5048764;28;20123;-84
2022/08/13 03:02:59;;;;;;;4.30;3.15;;;;;;;20.34;55.34;99609.66;5096177;22;20040;-84
2022/08/13 03:05:30;;;;;;;4.50;3.20;;;;;;;20.42;54.92;99624.00;5034654;28;20049;-84
2022/08/13 03:07:56;;;;;;;4.22;3.53;;;;;;;20.39;55.00;99611.72;5026102;28;20040;-83
2022/08/13 03:10:25;;;;;;;4.10;3.20;;;;;;;20.37;55.62;99607.88;5035587;28;20036;-84
2022/08/13 03:12:59;;;;;;;4.47;3.22;;;;;;;20.40;55.58;99615.31;5038903;28;20035;-84
2022/08/13 03:15:26;;;;;;;5.35;3.22;;;;;;;20.38;55.80;99621.44;5068687;28;20043;-84
2022/08/13 03:17:52;;;;;;;4.97;3.30;;;;;;;20.40;56.14;99630.16;5072068;28;20059;-84
2022/08/13 03:20:17;;;;;;;4.15;3.25;;;;;;;20.38;55.62;99621.44;5053230;28;20511;-84
2022/08/13 03:22:56;;;;;;;4.55;3.22;;;;;;;20.41;55.08;99614.78;5038864;28;20054;-84
2022/08/13 03:25:29;;;;;;;3.92;3.40;;;;;;;20.40;55.39;99623.75;5055998;28;20048;-84
2022/08/13 03:27:55;;;;;;;5.15;3.13;;;;;;;20.33;55.85;99630.69;5049401;28;20048;-84
2022/08/13 03:30:22;;;;;;;4.43;2.90;;;;;;;20.30;56.37;99630.94;5063014;28;20046;-84
2022/08/13 03:32:49;;;;;;;3.90;2.90;;;;;;;20.18;56.67;99618.88;5052517;28;20050;-84
2022/08/13 03:35:21;;;;;;;3.92;3.10;;;;;;;20.20;56.50;99626.81;5070945;28;20135;-84
2022/08/13 03:37:49;;;;;;;4.25;3.20;;;;;;;20.05;57.61;99631.94;5072407;28;20048;-84
2022/08/13 03:40:16;;;;;;;4.63;3.42;;;;;;;19.95;57.81;99634.25;5037170;28;20123;-84
2022/08/13 03:42:42;;;;;;;4.78;3.10;;;;;;;19.86;58.02;99632.44;5054942;28;20036;-83
2022/08/13 03:45:09;;;;;;;4.63;3.15;;;;;;;19.73;59.33;99632.19;5069013;28;20059;-84
2022/08/13 03:47:35;;;;;;;4.50;3.40;;;;;;;19.69;59.76;99644.97;5035926;28;20119;-84
2022/08/13 03:50:03;;;;;;;3.60;3.17;;;;;;;19.71;59.13;99636.78;5050436;28;20517;-84
2022/08/13 03:52:30;;;;;;;4.85;3.33;;;;;;;19.67;61.30;99650.31;5069475;28;20055;-84
2022/08/13 03:54:56;;;;;;;8.73;4.05;;;;;;;19.62;61.63;99648.25;5052009;28;20493;-83
2022/08/13 03:57:23;;;;;;;4.82;3.50;;;;;;;19.65;60.71;99650.09;5045672;28;20066;-83
2022/08/13 03:59:49;;;;;;;4.35;3.42;;;;;;;19.69;60.03;99639.34;5036068;28;20115;-82
2022/08/13 04:02:16;;;;;;;4.47;3.13;;;;;;;19.71;60.47;99636.78;5049239;28;20040;-83
2022/08/13 04:04:48;;;;;;;4.65;3.45;;;;;;;19.62;60.79;99625.75;5055024;28;20130;-83
2022/08/13 04:07:14;;;;;;;4.90;3.50;;;;;;;19.62;61.28;99634.19;5074731;28;20040;-83
2022/08/13 04:09:41;;;;;;;8.18;3.53;;;;;;;19.61;61.22;99627.81;5056134;28;20032;-84
2022/08/13 04:12:11;;;;;;;4.03;3.22;;;;;;;19.62;61.16;99617.31;5067262;28;20123;-83
2022/08/13 04:14:41;;;;;;;4.32;3.40;;;;;;;19.71;60.60;99637.53;5051809;28;20040;-83
2022/08/13 04:17:10;;;;;;;5.43;3.60;;;;;;;19.75;61.05;99645.72;5053199;28;20488;-84
2022/08/13 04:19:42;;;;;;;5.18;3.25;;;;;;;19.76;60.41;99644.47;5055644;28;20114;-83
2022/08/13 04:22:10;;;;;;;4.32;3.40;;;;;;;19.77;60.89;99640.38;5071427;28;20070;-84
2022/08/13 04:24:36;;;;;;;4.97;3.50;;;;;;;19.76;61.10;99650.09;5054344;28;20569;-84
2022/08/13 04:27:02;;;;;;;4.72;3.90;;;;;;;19.76;61.78;99650.09;5088738;28;20071;-83
2022/08/13 04:29:28;;;;;;;4.60;3.50;;;;;;;19.73;61.18;99639.84;5055116;28;20500;-83
2022/08/13 04:31:53;;;;;;;4.13;3.70;;;;;;;19.75;61.61;99645.72;5070519;28;20056;-84
2022/08/13 04:34:25;;;;;;;6.10;4.00;;;;;;;19.82;62.07;99654.44;5052598;28;20048;-83
2022/08/13 04:36:50;;;;;;;7.28;3.95;;;;;;;19.78;62.34;99647.53;5055121;28;20047;-83
2022/08/13 04:39:16;;;;;;;4.63;3.67;;;;;;;19.75;62.77;99649.31;5071702;28;20127;-83
2022/08/13 04:41:41;;;;;;;5.75;3.85;;;;;;;19.75;62.48;99637.28;5091709;28;20036;-84
2022/08/13 04:44:07;;;;;;;3.90;3.30;;;;;;;19.81;62.20;99647.28;5061104;28;20048;-83
2022/08/13 04:46:32;;;;;;;5.97;3.72;;;;;;;19.81;62.16;99646.53;5068848;28;20429;-84
2022/08/13 04:48:58;;;;;;;5.32;3.50;;;;;;;19.65;63.79;99644.44;5057859;28;20105;-84
2022/08/13 04:51:25;;;;;;;5.03;4.00;;;;;;;19.66;63.20;99658.00;5057400;28;20043;-84
2022/08/13 04:53:51;;;;;;;5.05;3.55;;;;;;;19.61;64.32;99658.00;5074151;28;20039;-84
2022/08/13 04:56:17;;;;;;;4.30;3.80;;;;;;;19.68;63.27;99657.50;5072360;28;20032;-84
2022/08/13 04:58:43;;;;;;;7.05;4.10;;;;;;;19.66;64.07;99651.59;5073559;28;20408;-83
2022/08/13 05:01:10;;;;;;;4.32;3.67;;;;;;;19.68;63.33;99649.06;5073533;28;20063;-83
2022/08/13 05:03:39;;;;;;;4.28;3.50;;;;;;;19.67;63.18;99651.09;5093330;28;20036;-84
2022/08/13 05:06:05;;;;;;;6.43;3.60;;;;;;;19.69;64.40;99650.59;5074165;28;20047;-84
2022/08/13 05:08:33;;;;;;;6.18;3.83;;;;;;;19.69;64.02;99647.78;5056070;28;20025;-84
2022/08/13 05:11:00;;;;;;;7.70;3.90;;;;;;;19.71;63.88;99656.47;5093342;28;20374;-85
2022/08/13 05:13:35;;;;;;;5.80;3.67;;;;;;;19.69;64.31;99651.38;5071939;28;20044;-85
2022/08/13 05:16:03;;;;;;;5.18;3.85;;;;;;;19.73;64.29;99649.06;5058560;28;20496;-84
2022/08/13 05:18:33;;;;;;;6.20;3.78;;;;;;;19.77;64.86;99657.25;5074205;28;20047;-84
2022/08/13 05:21:03;;;;;;;5.53;3.83;;;;;;;19.66;66.75;99645.97;5057451;28;20134;-84
2022/08/13 05:23:30;;;;;;;6.32;3.67;;;;;;;19.64;66.29;99652.13;5057773;28;20047;-83
2022/08/13 05:25:58;;;;;;;4.82;3.70;;;;;;;19.74;66.26;99656.22;5071297;28;20058;-83
2022/08/13 05:28:24;;;;;;;7.53;3.92;;;;;;;19.72;65.61;99641.91;5074076;28;20036;-83
2022/08/13 05:30:49;;;;;;;7.07;4.00;;;;;;;19.75;65.30;99640.09;5074042;28;20036;-84
2022/08/13 05:33:20;;;;;;;6.40;3.80;;;;;;;19.75;65.81;99646.50;5072610;28;20473;-85
2022/08/13 05:35:48;;;;;;;6.45;3.90;;;;;;;19.69;66.27;99644.97;5057434;28;20556;-84
2022/08/13 05:38:15;;;;;;;6.13;4.13;;;;;;;19.67;66.60;99653.91;5058322;28;20556;-84
2022/08/13 05:40:42;;;;;;;5.30;3.70;;;;;;;19.58;66.74;99650.56;5057812;28;20067;-84
2022/08/13 05:43:13;;;;;;;7.55;4.18;;;;;;;19.55;67.18;99644.69;5074809;28;20115;-84
2022/08/13 05:45:40;;;;;;;5.93;4.43;;;;;;;19.58;66.84;99644.94;5074757;28;20044;-84
2022/08/13 05:48:05;;;;;;;4.78;4.07;;;;;;;19.62;66.25;99634.19;5058024;28;20552;-86
2022/08/13 05:50:33;;;;;;;5.70;4.22;;;;;;;19.63;66.67;99647.00;5074658;28;20039;-83
2022/08/13 05:53:07;;;;;;;5.47;4.38;;;;;;;19.59;67.38;99657.72;5074989;28;20497;-83
2022/08/13 05:55:34;;;;;;;4.90;4.40;;;;;;;19.65;67.00;99664.91;5075296;28;20040;-84
2022/08/13 05:58:00;;;;;;;4.72;4.22;;;;;;;19.66;66.90;99665.66;5055672;28;20044;-83
2022/08/13 06:03:25;;;;;;;5.20;4.32;;;;;;;19.73;66.93;99673.63;5073779;28;20043;-83
2022/08/13 06:05:55;;;;;;;5.95;4.03;;;;;;;19.75;68.55;99683.09;5091312;28;20097;-84
2022/08/13 06:08:29;;;;;;;5.90;3.90;;;;;;;19.76;68.05;99672.59;5049425;28;20067;-83
2022/08/13 06:11:00;;;;;;;6.22;3.88;;;;;;;19.65;70.35;99676.16;5056163;28;20040;-85
2022/08/13 06:13:28;;;;;;;5.65;3.78;;;;;;;19.39;70.64;99661.47;5056539;28;20075;-85
2022/08/13 06:15:58;;;;;;;7.35;3.90;;;;;;;19.57;69.93;99680.00;5069240;28;20461;-84
2022/08/13 06:18:26;;;;;;;5.22;3.90;;;;;;;19.66;71.00;99685.34;5075257;28;20044;-84
2022/08/13 06:20:57;;;;;;;6.18;3.95;;;;;;;19.39;70.89;99679.13;5073029;28;20488;-84
2022/08/13 06:23:24;;;;;;;6.63;3.97;;;;;;;19.12;71.14;99681.84;5072756;28;20190;-84
2022/08/13 06:25:52;;;;;;;8.15;4.10;;;;;;;19.05;71.95;99677.44;5031244;28;20037;-84
2022/08/13 06:28:23;;;;;;;4.60;3.90;;;;;;;19.24;70.65;99672.16;5018332;28;20037;-84
2022/08/13 06:31:13;;;;;;;6.25;3.83;;;;;;;19.35;70.34;99683.44;5051369;28;20086;-84
2022/08/13 06:33:40;;;;;;;7.40;4.38;;;;;;;19.25;71.31;99674.47;5057972;28;20055;-84
2022/08/13 06:36:11;;;;;;;6.63;4.20;;;;;;;19.19;71.37;99682.13;5052854;28;20052;-85
2022/08/13 06:38:39;;;;;;;5.53;4.05;;;;;;;19.25;71.54;99685.72;5051118;28;20047;-85
2022/08/13 06:41:06;;;;;;;5.13;4.03;;;;;;;19.13;72.36;99695.38;5052274;28;20086;-84
2022/08/13 06:43:36;;;;;;;7.45;4.35;;;;;;;19.00;72.67;99687.41;5037910;28;20044;-84
2022/08/13 06:46:05;;;;;;;6.10;4.28;;;;;;;19.22;72.01;99691.56;5053434;28;20568;-85
2022/08/13 06:48:32;;;;;;;7.90;4.30;;;;;;;19.15;72.34;99698.47;5072253;28;20028;-84
2022/08/13 06:50:58;;;;;;;5.38;4.03;;;;;;;19.09;72.61;99695.59;5053559;28;20193;-83
2022/08/13 06:53:23;;;;;;;5.93;4.18;;;;;;;19.06;73.59;99699.44;5081071;28;20556;-83
2022/08/13 06:55:51;;;;;;;6.32;4.30;;;;;;;19.15;73.56;99706.91;5073533;28;20051;-83
2022/08/13 06:58:22;;;;;;;6.40;4.57;;;;;;;19.05;73.52;99699.94;5039564;28;20070;-83
2022/08/13 07:00:48;;;;;;;6.47;4.38;;;;;;;19.09;72.93;99697.66;5041653;28;20123;-83
2022/08/13 07:03:18;;;;;;;6.10;4.80;;;;;;;19.15;73.06;99698.47;5071553;28;20067;-84
2022/08/13 07:05:43;;;;;;;8.75;4.38;;;;;;;19.20;72.81;99716.63;5057746;28;20048;-84
2022/08/13 07:08:11;;;;;;;7.13;4.43;;;;;;;19.41;71.47;99721.56;5071386;28;20078;-85
2022/08/13 07:10:41;;;;;;;7.13;4.50;;;;;;;19.41;72.22;99710.31;5052218;28;20040;-85
2022/08/13 07:13:07;;;;;;;8.77;4.30;;;;;;;19.31;72.51;99711.06;5089411;28;20032;-86
2022/08/13 07:15:32;;;;;;;7.90;4.03;;;;;;;19.42;72.28;99722.34;5055056;28;20135;-86
2022/08/13 07:17:58;;;;;;;7.22;4.70;;;;;;;19.35;73.21;99720.78;5056634;28;20459;-83
2022/08/13 07:20:25;;;;;;;7.13;4.40;;;;;;;19.46;73.09;99726.47;5038732;28;20071;-84
2022/08/13 07:22:53;;;;;;;6.35;4.70;;;;;;;19.49;72.88;99708.59;5073247;28;20037;-84
2022/08/13 07:25:22;;;;;;;6.97;5.00;;;;;;;19.41;73.48;99701.13;5054876;28;20382;-83
2022/08/13 07:27:49;;;;;;;7.32;4.50;;;;;;;19.46;72.99;99708.84;5071836;28;20495;-83
2022/08/13 07:30:15;;;;;;;8.93;4.85;;;;;;;19.38;73.87;99704.94;5051216;28;20546;-83
2022/08/13 07:32:41;;;;;;;7.40;4.13;;;;;;;19.11;73.83;99706.34;5054154;28;20040;-83
2022/08/13 07:35:08;;;;;;;5.50;4.05;;;;;;;19.05;73.77;99705.56;5056109;28;20046;-83
2022/08/13 07:37:35;;;;;;;6.43;4.18;;;;;;;18.85;73.71;99709.28;5072976;28;20500;-83
2022/08/13 07:40:01;;;;;;;8.55;4.30;;;;;;;18.93;73.72;99709.56;5070479;28;20115;-83
2022/08/13 07:42:28;;;;;;;9.45;3.80;;;;;;;19.02;73.02;99704.53;5054827;28;20509;-84
2022/08/13 07:44:54;;;;;;;6.20;3.83;;;;;;;19.09;73.08;99709.66;5072903;28;20043;-85
2022/08/13 07:47:21;;;;;;;5.13;3.70;;;;;;;19.19;72.83;99701.03;5064274;28;20043;-83
2022/08/13 07:49:47;;;;;;;6.95;3.83;;;;;;;19.20;73.97;99720.22;5037745;28;20040;-84
2022/08/13 07:52:13;;;;;;;10.75;4.75;;;;;;;19.11;75.30;99731.66;5035615;28;20086;-84
2022/08/13 07:54:42;;;;;;;9.27;5.75;;;;;;;19.09;75.96;99728.56;5038566;28;20041;-84
2022/08/13 07:57:08;;;;;;;7.68;5.47;;;;;;;19.02;77.10;99738.25;5087338;28;20046;-83
2022/08/13 07:59:36;;;;;;;4.53;4.13;;;;;;;18.82;76.88;99740.41;5079719;28;20047;-83
2022/08/13 08:02:06;;;;;;;7.03;4.13;;;;;;;18.75;79.42;99752.13;5067163;28;20071;-84
2022/08/13 08:04:35;;;;;;;7.22;4.55;;;;;;;18.63;80.77;99751.28;5034721;28;20459;-85
2022/08/13 08:07:01;;;;;;;5.68;4.10;;;;;;;18.60;80.44;99749.47;5043563;28;20491;-86
2022/08/13 08:09:29;;;;;;;6.35;4.20;;;;;;;18.45;80.06;99743.19;5045304;28;20119;-86
2022/08/13 08:14:44;;;;;;;6.10;3.40;;;;;;;18.36;79.86;99755.34;5049582;28;20462;-84
2022/08/13 08:17:11;;;;;;;5.82;3.80;;;;;;;18.37;80.26;99754.09;5054089;28;20469;-85
2022/08/13 08:19:41;;;;;;;5.30;3.67;;;;;;;18.49;78.58;99732.47;5034454;28;20040;-84
2022/08/13 08:22:07;;;;;;;5.28;3.90;;;;;;;18.58;80.19;99741.53;5061998;28;20592;-83
2022/08/13 08:24:34;;;;;;;7.38;3.90;;;;;;;18.46;81.13;99741.91;5058870;28;20055;-82
2022/08/13 08:27:03;;;;;;;5.40;4.10;;;;;;;18.29;82.24;99724.91;5032601;28;20041;-82
2022/08/13 08:29:31;;;;;;;6.13;3.47;;;;;;;18.39;81.40;99728.34;5030197;28;20029;-82
2022/08/13 08:31:59;;;;;;;9.20;4.32;;;;;;;18.22;82.39;99722.56;5066083;28;20554;-83
2022/08/13 08:34:25;;;;;;;5.95;4.30;;;;;;;18.28;81.88;99740.22;5061314;28;20767;-84
2022/08/13 08:36:53;;;;;;;4.85;4.13;;;;;;;18.14;82.20;99752.34;5060578;28;20117;-82
2022/08/13 08:45:02;;;;;;;5.00;3.92;;;;;;;18.41;82.25;99765.09;5042136;28;20044;-83
2022/08/13 08:47:29;;;;;;;7.25;4.35;;;;;;;18.46;80.57;99765.16;5049616;28;20370;-82
2022/08/13 08:49:58;;;;;;;4.80;4.05;;;;;;;18.39;80.90;99771.22;5049299;28;20040;-83
2022/08/13 08:53:19;;;;;;;6.18;4.22;;;;;;;18.51;81.44;99769.28;5050407;28;20036;-82
2022/08/13 08:55:11;;;;;;;6.57;4.55;;;;;;;18.34;81.68;99760.72;5071581;28;20048;-83
2022/08/13 08:57:37;;;;;;;6.00;4.32;;;;;;;18.39;82.10;99765.63;5052449;28;20070;-83
2022/08/13 09:00:05;;;;;;;5.13;4.63;;;;;;;18.43;82.79;99776.63;5059893;28;20081;-83
2022/08/13 09:02:33;;;;;;;5.78;5.03;;;;;;;18.64;81.79;99776.03;5030137;28;20072;-83
2022/08/13 09:05:00;;;;;;;7.95;4.65;;;;;;;18.89;81.36;99768.06;5050116;28;20063;-83
2022/08/13 09:07:26;;;;;;;5.10;4.60;;;;;;;18.87;82.34;99776.22;5036608;28;20044;-83
2022/08/13 09:09:59;;;;;;;7.07;5.10;;;;;;;18.64;83.95;99764.81;5037272;28;20102;-83
2022/08/13 09:12:26;;;;;;;5.68;4.75;;;;;;;18.79;83.78;99766.72;5050076;28;20048;-85
2022/08/13 09:14:52;;;;;;;5.32;4.82;;;;;;;18.51;85.03;99774.91;5057498;28;20561;-83
2022/08/13 09:17:18;;;;;;;5.22;4.68;;;;;;;18.52;85.92;99782.09;5053304;28;20124;-83
2022/08/13 09:19:44;;;;;;;5.72;4.88;;;;;;;18.58;85.79;99785.72;5050733;28;20131;-85
2022/08/13 09:22:14;;;;;;;5.80;4.88;;;;;;;18.60;86.46;99795.16;5036914;28;20098;-83
2022/08/13 09:24:41;;;;;;;6.78;5.15;;;;;;;18.78;85.56;99782.81;5034881;28;20032;-83
2022/08/13 09:27:06;;;;;;;5.18;4.68;;;;;;;18.68;86.67;99772.25;5066759;28;20493;-84
2022/08/13 09:29:32;;;;;;;6.47;5.47;;;;;;;18.48;88.27;99776.66;5028618;28;20048;-83
2022/08/13 09:31:58;;;;;;;5.95;5.35;;;;;;;18.30;90.16;99767.81;5047364;28;20048;-84
2022/08/13 09:34:24;;;;;;;7.40;5.40;;;;;;;18.08;91.88;99768.34;5054944;28;20056;-83
2022/08/13 09:36:57;;;;;;;6.47;5.78;;;;;;;17.97;93.66;99771.06;5070949;28;20052;-83
2022/08/13 09:39:30;;;;;;;6.53;5.85;;;;;;;17.96;95.01;99775.91;5052422;28;20433;-84
2022/08/13 09:41:56;;;;;;;9.13;5.90;;;;;;;18.11;94.90;99758.97;5049593;28;20053;-85
2022/08/13 09:44:24;;;;;;;7.25;6.55;;;;;;;18.23;94.14;99754.22;5069563;28;20527;-84
2022/08/13 09:46:50;;;;;;;8.27;6.13;;;;;;;18.34;93.59;99760.72;5039122;28;20066;-84
2022/08/13 09:49:15;;;;;;;6.80;5.70;;;;;;;18.46;93.47;99767.97;5047542;28;20481;-85
2022/08/13 09:51:41;;;;;;;7.05;6.30;;;;;;;18.48;93.18;99773.84;5038102;28;20086;-84
2022/08/13 09:54:10;;;;;;;8.05;5.80;;;;;;;18.68;91.51;99761.81;5059871;28;20040;-86
2022/08/13 09:56:39;;;;;;;6.60;5.25;;;;;;;18.87;91.22;99784.66;5042952;28;20098;-86
2022/08/13 09:59:10;;;;;;;6.53;5.80;;;;;;;19.04;89.82;99780.69;5069613;28;20304;-86
2022/08/13 10:01:38;;;;;;;7.70;5.30;;;;;;;18.99;90.20;99770.19;5072931;28;20105;-86
2022/08/13 10:04:04;;;;;;;6.45;5.30;;;;;;;19.17;88.61;99769.00;5038437;28;20082;-85
2022/08/13 10:06:32;;;;;;;7.40;6.15;;;;;;;19.13;88.95;99768.47;5056380;28;20040;-85
2022/08/13 10:09:00;;;;;;;6.43;5.82;;;;;;;19.01;90.43;99764.81;5057558;28;20055;-86
2022/08/13 10:11:27;;;;;;;7.20;6.50;;;;;;;19.06;91.39;99777.38;5037042;28;20046;-86
2022/08/13 10:13:54;;;;;;;6.72;5.88;;;;;;;19.05;91.12;99767.38;5063486;28;20036;-86
2022/08/13 10:16:20;;;;;;;7.00;6.30;;;;;;;19.07;91.93;99768.44;5046961;28;20037;-86
2022/08/13 10:18:46;;;;;;;6.60;5.93;;;;;;;19.14;91.11;99774.84;5052249;28;20024;-86
2022/08/13 10:21:12;;;;;;;6.60;5.90;;;;;;;19.04;91.02;99765.88;5068745;28;20044;-85
2022/08/13 10:23:38;;;;;;;6.70;6.10;;;;;;;19.26;89.92;99762.41;5053830;28;20123;-86
2022/08/13 10:26:04;;;;;;;6.78;5.63;;;;;;;19.40;88.62;99753.03;5060693;28;20127;-85
2022/08/13 10:28:32;;;;;;;6.65;5.88;;;;;;;19.26;90.30;99759.59;5059798;28;20032;-83
2022/08/13 10:31:02;;;;;;;6.40;5.80;;;;;;;19.32;90.05;99747.13;5057448;28;20048;-84
2022/08/13 10:33:27;;;;;;;6.80;5.85;;;;;;;19.52;89.11;99744.16;5057884;28;20496;-86
2022/08/13 10:35:55;;;;;;;7.63;6.00;;;;;;;19.42;88.25;99747.66;5070366;28;20052;-84
2022/08/13 10:38:25;;;;;;;8.98;6.00;;;;;;;19.41;87.61;99752.50;5037799;28;20669;-84
2022/08/13 10:40:51;;;;;;;6.75;6.00;;;;;;;19.45;87.22;99741.81;5039884;28;20093;-84
2022/08/13 10:43:17;;;;;;;10.77;5.60;;;;;;;19.58;86.80;99735.72;5048448;28;20028;-84
2022/08/13 10:45:45;;;;;;;6.65;5.75;;;;;;;19.72;85.83;99739.63;5054492;28;20140;-84
2022/08/13 10:48:12;;;;;;;6.90;5.97;;;;;;;19.73;85.87;99736.31;5049728;28;20036;-84
2022/08/13 10:50:38;;;;;;;6.30;5.70;;;;;;;19.96;85.82;99737.13;5049611;28;20040;-84
2022/08/13 10:53:03;;;;;;;6.22;5.63;;;;;;;20.10;83.16;99736.09;5037488;28;20029;-84
2022/08/13 10:55:29;;;;;;;6.47;5.70;;;;;;;20.31;81.41;99717.72;5037034;28;20041;-84
2022/08/13 10:57:55;;;;;;;6.38;5.72;;;;;;;20.44;80.46;99720.03;5046728;28;20420;-82
2022/08/13 11:00:20;;;;;;;6.78;5.35;;;;;;;20.60;79.43;99724.13;5075574;28;20516;-82
2022/08/13 11:02:50;;;;;;;7.00;5.50;;;;;;;20.61;78.12;99722.84;5093273;28;20072;-85
2022/08/13 11:05:25;;;;;;;8.02;5.60;;;;;;;20.63;78.73;99715.41;5073472;28;20088;-85
2022/08/13 11:07:52;;;;;;;6.10;5.50;;;;;;;20.69;77.96;99706.97;5073435;28;20546;-83
2022/08/13 11:10:20;;;;;;;6.03;5.45;;;;;;;20.71;77.28;99718.47;5082190;28;20059;-83
2022/08/13 11:12:50;;;;;;;6.30;5.70;;;;;;;20.84;77.22;99704.63;5053623;28;20070;-85
2022/08/13 11:15:22;;;;;;;6.18;5.40;;;;;;;21.06;75.52;99712.25;5055111;28;20070;-85
2022/08/13 11:17:53;;;;;;;6.72;5.90;;;;;;;21.27;74.65;99711.44;5050472;28;20048;-84
2022/08/13 11:20:20;;;;;;;6.57;5.20;;;;;;;21.47;74.04;99704.72;5039527;28;20040;-84
2022/08/13 11:22:47;;;;;;;6.40;5.30;;;;;;;21.13;74.22;99715.34;5053962;28;20528;-85
2022/08/13 11:25:13;;;;;;;6.82;5.88;;;;;;;21.23;73.58;99708.13;5055616;28;20040;-84
2022/08/13 11:27:40;;;;;;;6.25;5.63;;;;;;;21.48;73.09;99696.97;5072937;28;20044;-85
2022/08/13 11:30:06;;;;;;;6.15;5.55;;;;;;;21.50;72.71;99698.03;5060039;28;20052;-83
2022/08/13 11:32:32;;;;;;;7.38;5.90;;;;;;;21.71;72.99;99704.06;5087324;28;20028;-84
2022/08/13 11:34:58;;;;;;;6.60;5.78;;;;;;;21.81;72.59;99685.53;5066523;28;20059;-85
2022/08/13 11:37:23;;;;;;;6.97;5.93;;;;;;;21.94;71.32;99699.06;5030825;28;20101;-86
2022/08/13 11:39:49;;;;;;;6.20;5.60;;;;;;;21.86;69.18;99693.19;5065622;28;20089;-85
2022/08/13 11:42:14;;;;;;;8.18;6.03;;;;;;;21.96;69.64;99702.91;5027533;28;20056;-85
2022/08/13 11:44:39;;;;;;;7.70;5.50;;;;;;;22.01;68.94;99693.63;5051259;28;20174;-84
2022/08/13 11:47:05;;;;;;;6.93;6.25;;;;;;;21.99;69.75;99679.28;5031312;28;20048;-83
2022/08/13 11:49:31;;;;;;;6.30;5.70;;;;;;;22.22;67.56;99685.50;5075616;28;20543;-83
2022/08/13 11:51:56;;;;;;;6.28;5.68;;;;;;;22.35;66.51;99687.72;5047621;28;20040;-84
2022/08/13 11:54:23;;;;;;;6.55;5.95;;;;;;;22.39;65.60;99688.19;5069818;28;20044;-84
2022/08/13 11:56:49;;;;;;;7.22;5.93;;;;;;;22.35;65.78;99680.00;5052745;28;20041;-85
2022/08/13 11:59:14;;;;;;;7.50;6.03;;;;;;;21.79;68.53;99676.81;5054912;28;20382;-85